Time;durP1;ratioP1;P1;durP2;ratioP2;P2;SDS_P1;SDS_P2;PMS_P1;PMS_P2;Temp;Humidity;BMP_temperature;BMP_pressure;BME280_temperature;BME280_humidity;BME280_pressure;Samples;Min_cycle;Max_cycle;Signal;HPM_P1;HPM_P2
2022/09/04 00:01:56;;;;;;;9.73;2.40;;;17.00;76.40;;;;;;5047054;28;20052;-70
2022/09/04 00:04:50;;;;;;;4.37;2.30;;;17.10;76.60;;;;;;5035262;28;20113;-69
2022/09/04 00:07:27;;;;;;;3.72;1.85;;;17.00;76.50;;;;;;5048267;28;20299;-70
2022/09/04 00:10:13;;;;;;;6.85;2.13;;;16.90;76.40;;;;;;5046662;28;20129;-70
2022/09/04 00:12:57;;;;;;;4.55;2.05;;;16.90;76.40;;;;;;5049009;28;20048;-68
2022/09/04 00:15:27;;;;;;;14.15;2.30;;;16.90;76.70;;;;;;5042365;28;20060;-69
2022/09/04 00:18:05;;;;;;;7.13;1.90;;;16.90;76.60;;;;;;5048163;28;20111;-69
2022/09/04 00:20:44;;;;;;;2.63;1.80;;;16.90;76.50;;;;;;5046647;28;20106;-70
2022/09/04 00:23:39;;;;;;;6.25;2.05;;;16.90;76.50;;;;;;5045633;28;20052;-70
2022/09/04 00:26:13;;;;;;;7.80;2.35;;;16.80;76.60;;;;;;5048761;28;20049;-68
2022/09/04 00:28:52;;;;;;;12.68;2.40;;;16.80;76.30;;;;;;5046653;28;20045;-69
2022/09/04 00:31:41;;;;;;;5.20;1.85;;;16.80;76.40;;;;;;5033763;28;20084;-68
2022/09/04 00:34:36;;;;;;;2.80;1.60;;;16.80;76.10;;;;;;5048829;28;20048;-70
2022/09/04 00:37:05;;;;;;;5.85;1.80;;;16.80;75.90;;;;;;5047387;28;20578;-68
2022/09/04 00:39:47;;;;;;;6.45;2.00;;;16.80;75.80;;;;;;5045399;28;20509;-69
2022/09/04 00:42:46;;;;;;;6.57;2.10;;;16.80;75.70;;;;;;5046994;28;20041;-69
2022/09/04 00:45:18;;;;;;;3.05;1.73;;;16.80;75.70;;;;;;5050340;28;20052;-69
2022/09/04 00:48:02;;;;;;;3.83;1.80;;;16.80;75.60;;;;;;5045574;28;20404;-69
2022/09/04 00:50:54;;;;;;;3.35;2.00;;;16.80;75.50;;;;;;5048805;28;20041;-69
2022/09/04 00:53:41;;;;;;;5.05;2.00;;;16.80;75.60;;;;;;5060874;28;20099;-68
2022/09/04 00:56:16;;;;;;;3.95;2.10;;;16.80;75.60;;;;;;5046507;28;20041;-69
2022/09/04 00:59:16;;;;;;;3.97;1.73;;;16.70;75.70;;;;;;5053173;28;20400;-69
2022/09/04 01:01:43;;;;;;;4.25;2.05;;;16.70;75.70;;;;;;5052697;28;20499;-70
2022/09/04 01:04:20;;;;;;;8.82;2.30;;;16.70;75.70;;;;;;5055238;28;20163;-70
2022/09/04 01:07:16;;;;;;;4.22;2.08;;;16.70;75.80;;;;;;5052545;28;20046;-71
2022/09/04 01:10:09;;;;;;;6.82;2.00;;;16.70;75.90;;;;;;5054120;28;20033;-70
2022/09/04 01:12:50;;;;;;;5.25;2.03;;;16.60;75.90;;;;;;5054436;28;20076;-69
2022/09/04 01:15:37;;;;;;;5.25;1.90;;;16.60;76.00;;;;;;5050015;28;20056;-69
2022/09/04 01:18:16;;;;;;;8.02;2.20;;;16.60;76.30;;;;;;5043646;28;20540;-68
2022/09/04 01:20:50;;;;;;;;;;;16.60;76.10;;;;;;5047810;28;20511;-68
2022/09/04 01:23:49;;;;;;;6.43;2.80;;;16.50;76.30;;;;;;5051861;28;20277;-68
2022/09/04 01:26:31;;;;;;;6.65;2.65;;;16.50;76.40;;;;;;5052444;28;20091;-69
2022/09/04 01:29:31;;;;;;;5.85;2.00;;;16.50;76.30;;;;;;5051466;28;20048;-71
2022/09/04 01:32:26;;;;;;;3.00;1.80;;;16.50;76.70;;;;;;5047725;28;20059;-69
2022/09/04 01:35:29;;;;;;;6.63;2.00;;;16.40;76.60;;;;;;5042356;28;20045;-69
2022/09/04 01:38:13;;;;;;;6.45;2.10;;;16.40;76.80;;;;;;5049812;28;20539;-69
2022/09/04 01:40:43;;;;;;;4.40;2.40;;;16.40;76.70;;;;;;5048878;28;20049;-69
2022/09/04 01:43:17;;;;;;;4.07;2.13;;;16.40;76.70;;;;;;5036335;28;20037;-69
2022/09/04 01:46:06;;;;;;;5.97;1.90;;;16.40;76.90;;;;;;5051497;28;20493;-70
2022/09/04 01:49:19;;;;;;;6.15;2.05;;;16.30;76.90;;;;;;5036817;28;20076;-68
2022/09/04 01:52:04;;;;;;;6.80;2.00;;;16.30;77.20;;;;;;5050354;28;20060;-68
2022/09/04 01:54:45;;;;;;;4.72;2.10;;;16.30;77.40;;;;;;5053127;28;20041;-68
2022/09/04 01:57:51;;;;;;;5.78;1.98;;;16.30;77.20;;;;;;5039940;28;20411;-69
2022/09/04 02:00:21;;;;;;;6.05;2.70;;;16.20;77.80;;;;;;5037896;28;20044;-69
2022/09/04 02:03:20;;;;;;;4.57;2.15;;;16.20;78.10;;;;;;5035272;28;20044;-70
2022/09/04 02:06:01;;;;;;;7.97;2.53;;;16.10;77.90;;;;;;5033348;28;20049;-70
2022/09/04 02:09:10;;;;;;;8.18;2.50;;;16.10;77.70;;;;;;5053386;28;20049;-69
2022/09/04 02:11:39;;;;;;;6.68;2.35;;;16.10;78.70;;;;;;5035554;28;20053;-68
2022/09/04 02:14:20;;;;;;;7.55;2.20;;;16.00;78.60;;;;;;5049044;28;20495;-69
2022/09/04 02:17:09;;;;;;;11.30;2.20;;;16.00;79.60;;;;;;5046333;28;20037;-68
2022/09/04 02:19:48;;;;;;;7.03;2.40;;;15.90;79.80;;;;;;5042741;28;20045;-70
2022/09/04 02:22:14;;;;;;;;;;;15.80;80.30;;;;;;5045504;28;20048;-69
2022/09/04 02:24:58;;;;;;;6.88;2.22;;;15.80;80.90;;;;;;5050499;28;19920;-69
2022/09/04 02:28:05;;;;;;;5.88;2.20;;;15.70;81.30;;;;;;5045494;28;20531;-69
2022/09/04 02:30:41;;;;;;;3.85;2.00;;;15.60;81.60;;;;;;5035575;28;20405;-69
2022/09/04 02:33:14;;;;;;;4.25;2.53;;;15.50;81.40;;;;;;5047899;28;20056;-69
2022/09/04 02:35:57;;;;;;;4.03;2.17;;;15.50;81.80;;;;;;5046494;28;20136;-68
2022/09/04 02:38:29;;;;;;;8.80;2.88;;;15.40;82.10;;;;;;5042687;28;20053;-69
2022/09/04 02:41:19;;;;;;;7.93;2.22;;;15.40;82.20;;;;;;5037608;28;20095;-69
2022/09/04 02:44:28;;;;;;;6.07;2.28;;;15.30;82.50;;;;;;5024908;28;20068;-69
2022/09/04 02:47:07;;;;;;;6.32;2.10;;;15.30;83.00;;;;;;5037322;28;20072;-70
2022/09/04 02:49:47;;;;;;;7.80;2.03;;;15.20;82.80;;;;;;5045696;28;20044;-69
2022/09/04 02:52:58;;;;;;;4.65;2.42;;;15.20;83.00;;;;;;5046898;28;20055;-71
2022/09/04 02:55:38;;;;;;;4.10;2.20;;;15.10;83.40;;;;;;5019585;28;20042;-69
2022/09/04 02:58:24;;;;;;;5.70;2.55;;;15.10;83.60;;;;;;5010725;28;20112;-69
2022/09/04 03:01:08;;;;;;;7.72;2.78;;;15.00;83.70;;;;;;5040600;28;20067;-70
2022/09/04 03:04:11;;;;;;;4.60;2.33;;;15.00;83.80;;;;;;5040655;28;20053;-70
2022/09/04 03:06:49;;;;;;;5.70;2.47;;;15.00;84.10;;;;;;5049830;28;20668;-69
2022/09/04 03:09:30;;;;;;;3.88;2.35;;;14.90;84.40;;;;;;5037158;28;20082;-69
2022/09/04 03:12:10;;;;;;;6.03;2.80;;;14.90;84.40;;;;;;5050970;28;20055;-70
2022/09/04 03:14:50;;;;;;;7.22;2.70;;;14.90;84.80;;;;;;5044750;28;20041;-70
2022/09/04 03:17:34;;;;;;;4.57;2.58;;;14.80;85.60;;;;;;5045941;28;20074;-70
2022/09/04 03:20:27;;;;;;;4.65;2.47;;;14.80;85.50;;;;;;5044616;28;20033;-69
2022/09/04 03:23:17;;;;;;;4.13;2.38;;;14.80;86.50;;;;;;5041277;28;20063;-70
2022/09/04 03:25:42;;;;;;;;;;;14.70;86.10;;;;;;5048982;28;20120;-70
2022/09/04 03:28:16;;;;;;;3.33;2.03;;;14.60;87.10;;;;;;5047662;28;20016;-70
2022/09/04 03:30:42;;;;;;;4.65;2.30;;;14.60;86.60;;;;;;5050126;28;20071;-69
2022/09/04 03:33:20;;;;;;;3.63;2.20;;;14.60;86.70;;;;;;5045361;28;20041;-70
2022/09/04 03:36:08;;;;;;;6.13;2.57;;;14.60;87.10;;;;;;5029114;28;20508;-69
2022/09/04 03:38:52;;;;;;;6.07;2.42;;;14.50;87.80;;;;;;5039723;28;20046;-70
2022/09/04 03:41:44;;;;;;;4.25;2.45;;;14.50;87.40;;;;;;5049849;28;20052;-70
2022/09/04 03:44:48;;;;;;;5.65;2.72;;;14.50;87.40;;;;;;5049851;28;20095;-70
2022/09/04 03:47:16;;;;;;;5.82;2.40;;;14.50;88.20;;;;;;5047246;28;20037;-69
2022/09/04 03:50:03;;;;;;;5.43;2.83;;;14.50;87.80;;;;;;5048579;28;20472;-70
2022/09/04 03:52:47;;;;;;;5.75;2.63;;;14.50;88.30;;;;;;5049782;28;20049;-70
2022/09/04 03:55:21;;;;;;;8.27;2.40;;;14.40;88.80;;;;;;5049642;28;20451;-70
2022/09/04 03:58:17;;;;;;;5.72;2.25;;;14.40;88.40;;;;;;5046032;28;20059;-70
2022/09/04 04:00:58;;;;;;;6.55;2.40;;;14.40;88.80;;;;;;5063959;28;20183;-69
2022/09/04 04:03:45;;;;;;;5.47;2.40;;;14.40;88.60;;;;;;5037396;28;20492;-69
2022/09/04 04:06:13;;;;;;;;;;;14.40;88.70;;;;;;5044455;28;20041;-69
2022/09/04 04:08:55;;;;;;;4.00;1.90;;;14.30;90.10;;;;;;5049662;28;19924;-69
2022/09/04 04:11:52;;;;;;;5.65;2.35;;;14.30;89.40;;;;;;5046655;28;20126;-68
2022/09/04 04:14:41;;;;;;;8.45;2.17;;;14.30;89.70;;;;;;5049066;28;20086;-70
2022/09/04 04:17:07;;;;;;;;;;;14.30;89.90;;;;;;5049312;28;20455;-69
2022/09/04 04:20:10;;;;;;;4.38;2.30;;;14.20;90.30;;;;;;5046439;28;19920;-69
2022/09/04 04:22:59;;;;;;;8.30;2.67;;;14.20;90.10;;;;;;5048518;28;20045;-70
2022/09/04 04:25:48;;;;;;;4.95;2.53;;;14.20;90.40;;;;;;5048907;28;20048;-69
2022/09/04 04:28:18;;;;;;;3.67;2.17;;;14.20;90.30;;;;;;5050094;28;20041;-69
2022/09/04 04:30:51;;;;;;;3.58;2.25;;;14.10;90.30;;;;;;5050254;28;20095;-68
2022/09/04 04:33:31;;;;;;;6.45;2.70;;;14.10;90.30;;;;;;5052884;28;20037;-70
2022/09/04 04:36:23;;;;;;;6.75;2.60;;;14.10;90.40;;;;;;5053608;28;20044;-70
2022/09/04 04:39:08;;;;;;;6.13;2.53;;;14.10;90.80;;;;;;5053486;28;20056;-70
2022/09/04 04:42:18;;;;;;;8.80;3.05;;;14.10;90.70;;;;;;5039058;28;20130;-70
2022/09/04 04:48:13;;;;;;;6.72;2.30;;;14.10;90.70;;;;;;4989742;28;20112;-71
2022/09/04 04:50:49;;;;;;;6.22;2.63;;;14.10;91.10;;;;;;5043933;28;20056;-70
2022/09/04 04:53:24;;;;;;;5.22;2.60;;;14.10;91.00;;;;;;5051036;28;20056;-70
2022/09/04 04:55:58;;;;;;;12.45;2.42;;;14.10;91.00;;;;;;5053800;28;20048;-70
2022/09/04 04:58:45;;;;;;;7.28;2.60;;;14.20;91.10;;;;;;5050172;28;20040;-70
2022/09/04 05:01:42;;;;;;;5.72;2.80;;;14.20;91.20;;;;;;5050876;28;20057;-70
2022/09/04 05:04:30;;;;;;;3.60;2.38;;;14.20;91.60;;;;;;5053578;28;20036;-70
2022/09/04 05:07:30;;;;;;;5.80;2.33;;;14.20;91.30;;;;;;5052769;28;20392;-70
2022/09/04 05:10:21;;;;;;;4.53;2.65;;;14.30;91.50;;;;;;5040643;28;20102;-70
2022/09/04 05:13:14;;;;;;;6.65;2.83;;;14.30;91.30;;;;;;5039895;28;20142;-69
2022/09/04 05:15:51;;;;;;;3.53;2.60;;;14.30;91.30;;;;;;5049809;28;20060;-69
2022/09/04 05:18:56;;;;;;;6.30;2.80;;;14.30;91.20;;;;;;5051986;28;20075;-70
2022/09/04 05:21:58;;;;;;;7.40;2.92;;;14.30;91.40;;;;;;5025171;28;20049;-70
2022/09/04 05:24:37;;;;;;;5.22;2.85;;;14.20;91.50;;;;;;5046868;28;20435;-70
2022/09/04 05:27:12;;;;;;;10.93;2.80;;;14.30;91.40;;;;;;5067881;28;20117;-69
2022/09/04 05:29:55;;;;;;;4.90;2.45;;;14.30;91.50;;;;;;5051194;28;20043;-70
2022/09/04 05:32:42;;;;;;;7.70;3.00;;;14.30;91.50;;;;;;5051078;28;20106;-70
2022/09/04 05:35:23;;;;;;;8.95;2.97;;;14.30;91.70;;;;;;5043088;28;20073;-70
2022/09/04 05:38:05;;;;;;;7.95;2.33;;;14.30;91.70;;;;;;5052158;28;20045;-70
2022/09/04 05:40:49;;;;;;;9.90;2.60;;;14.30;91.80;;;;;;5032794;28;20385;-70
2022/09/04 05:43:21;;;;;;;5.68;2.60;;;14.30;91.80;;;;;;5049492;28;20041;-70
2022/09/04 05:46:17;;;;;;;4.63;2.90;;;14.20;91.90;;;;;;5050229;28;20072;-69
2022/09/04 05:48:59;;;;;;;4.97;2.65;;;14.30;92.00;;;;;;5041693;28;20053;-68
2022/09/04 05:51:43;;;;;;;9.82;2.97;;;14.30;92.00;;;;;;5048610;28;20488;-69
2022/09/04 05:54:31;;;;;;;5.13;2.60;;;14.40;92.10;;;;;;5051964;28;20040;-70
2022/09/04 05:57:05;;;;;;;6.88;2.47;;;14.40;92.00;;;;;;5052739;28;20048;-70
2022/09/04 05:59:56;;;;;;;4.63;2.50;;;14.40;92.00;;;;;;5048002;28;20516;-70
2022/09/04 06:02:43;;;;;;;8.52;2.85;;;14.40;92.00;;;;;;5047178;28;20556;-70
2022/09/04 06:05:37;;;;;;;4.15;2.70;;;14.50;92.20;;;;;;5052565;28;20531;-70
2022/09/04 06:08:40;;;;;;;8.90;2.60;;;14.50;92.10;;;;;;5048769;28;20045;-70
2022/09/04 06:11:35;;;;;;;6.25;2.70;;;14.50;92.10;;;;;;5047572;28;20106;-71
2022/09/04 06:14:25;;;;;;;4.55;2.60;;;14.60;92.00;;;;;;5050570;28;20523;-71
2022/09/04 06:17:03;;;;;;;5.68;2.17;;;14.70;91.90;;;;;;5050312;28;20048;-70
2022/09/04 06:19:50;;;;;;;7.47;2.90;;;14.70;91.80;;;;;;5050432;28;20067;-70
2022/09/04 06:22:41;;;;;;;5.80;2.88;;;14.80;91.80;;;;;;5048930;28;20067;-70
2022/09/04 06:25:33;;;;;;;3.63;2.53;;;14.80;91.80;;;;;;5043023;28;20501;-71
2022/09/04 06:28:28;;;;;;;4.97;2.67;;;14.90;91.80;;;;;;5047105;28;20052;-71
2022/09/04 06:31:13;;;;;;;5.35;2.88;;;15.00;91.80;;;;;;5050374;28;20116;-70
2022/09/04 06:34:13;;;;;;;5.07;2.80;;;15.10;91.70;;;;;;5049325;28;20040;-70
2022/09/04 06:36:56;;;;;;;3.90;2.55;;;15.30;91.60;;;;;;5050019;28;20048;-69
2022/09/04 06:39:37;;;;;;;5.75;2.65;;;15.60;90.80;;;;;;5050286;28;20075;-70
2022/09/04 06:42:26;;;;;;;7.88;2.90;;;15.90;90.50;;;;;;5050512;28;21005;-70
2022/09/04 06:45:13;;;;;;;4.80;2.83;;;16.10;90.30;;;;;;5045257;28;20114;-69
2022/09/04 06:48:05;;;;;;;7.72;2.72;;;16.20;90.00;;;;;;5048389;28;20400;-70
2022/09/04 06:50:45;;;;;;;7.40;2.83;;;16.40;89.60;;;;;;5049124;28;20052;-70
2022/09/04 06:53:15;;;;;;;5.65;3.03;;;16.70;88.90;;;;;;5050814;28;20098;-70
2022/09/04 06:55:52;;;;;;;3.65;2.45;;;16.90;88.10;;;;;;5050014;28;20045;-70
2022/09/04 06:58:50;;;;;;;6.82;2.63;;;16.90;87.30;;;;;;5051646;28;20429;-70
2022/09/04 07:01:33;;;;;;;3.90;2.63;;;17.00;87.50;;;;;;5029897;28;20558;-69
2022/09/04 07:04:03;;;;;;;5.18;2.72;;;17.10;87.70;;;;;;5047630;28;20048;-70
2022/09/04 07:06:37;;;;;;;5.57;2.72;;;17.40;86.10;;;;;;5050596;28;20048;-69
2022/09/04 07:09:17;;;;;;;4.03;2.67;;;17.60;85.30;;;;;;5045683;28;20049;-71
2022/09/04 07:12:01;;;;;;;5.45;3.35;;;17.60;85.40;;;;;;5039287;28;20037;-70
2022/09/04 07:14:39;;;;;;;5.35;2.67;;;17.60;85.30;;;;;;5033540;28;20540;-70
2022/09/04 07:17:52;;;;;;;4.63;2.83;;;17.60;85.10;;;;;;5050390;28;20115;-70
2022/09/04 07:20:22;;;;;;;5.53;2.72;;;17.60;85.40;;;;;;5008275;28;20045;-69
2022/09/04 07:23:02;;;;;;;4.63;2.50;;;17.50;85.60;;;;;;5047986;28;20076;-69
2022/09/04 07:25:43;;;;;;;5.60;2.50;;;17.60;85.60;;;;;;5039385;28;20071;-70
2022/09/04 07:28:27;;;;;;;4.43;2.45;;;17.70;85.90;;;;;;5031936;28;20088;-70
2022/09/04 07:31:02;;;;;;;8.45;3.35;;;17.80;85.60;;;;;;5043356;28;20037;-70
2022/09/04 07:34:07;;;;;;;7.47;2.60;;;17.90;85.30;;;;;;5049367;28;20048;-69
2022/09/04 07:36:40;;;;;;;5.70;2.90;;;18.00;84.80;;;;;;5051660;28;20049;-70
2022/09/04 07:39:29;;;;;;;6.32;2.78;;;18.10;85.20;;;;;;5038400;28;20049;-69
2022/09/04 07:42:26;;;;;;;10.20;3.22;;;18.20;85.10;;;;;;5050031;28;20512;-70
2022/09/04 07:45:33;;;;;;;8.57;2.90;;;18.40;84.80;;;;;;5050774;28;20045;-70
2022/09/04 07:48:27;;;;;;;5.60;2.80;;;18.60;84.60;;;;;;5043570;28;20127;-71
2022/09/04 07:51:10;;;;;;;6.68;2.92;;;18.80;84.50;;;;;;5038795;28;20045;-69
2022/09/04 07:53:56;;;;;;;4.93;2.47;;;18.90;83.90;;;;;;5050764;28;20081;-70
2022/09/04 07:56:48;;;;;;;8.95;2.60;;;19.10;83.30;;;;;;5049940;28;20411;-69
2022/09/04 07:59:40;;;;;;;5.82;2.65;;;19.20;82.90;;;;;;5048938;28;20053;-70
2022/09/04 08:02:18;;;;;;;7.03;2.72;;;19.20;82.70;;;;;;5050065;28;20060;-70
2022/09/04 08:05:22;;;;;;;5.82;2.72;;;19.30;82.70;;;;;;5054063;28;20138;-70
2022/09/04 08:08:09;;;;;;;6.90;2.45;;;19.50;82.10;;;;;;5054052;28;20169;-71
2022/09/04 08:10:49;;;;;;;6.95;2.58;;;19.70;81.30;;;;;;5049753;28;20100;-70
2022/09/04 08:13:24;;;;;;;10.35;2.70;;;19.80;81.50;;;;;;5033829;28;20489;-69
2022/09/04 08:16:08;;;;;;;8.10;2.75;;;19.90;81.40;;;;;;5049457;28;20039;-69
2022/09/04 08:18:34;;;;;;;6.00;2.60;;;20.10;81.30;;;;;;5054399;28;20047;-70
2022/09/04 08:21:30;;;;;;;8.48;2.78;;;20.20;80.80;;;;;;5041043;28;20049;-71
2022/09/04 08:24:11;;;;;;;4.97;2.60;;;20.30;80.70;;;;;;5050434;28;20083;-70
2022/09/04 08:26:37;;;;;;;9.45;3.05;;;20.40;80.60;;;;;;5055316;28;20052;-70
2022/09/04 08:29:41;;;;;;;6.20;2.30;;;20.60;81.20;;;;;;5052284;28;20041;-69
2022/09/04 08:32:31;;;;;;;8.52;2.90;;;20.70;80.10;;;;;;5044353;28;20041;-69
2022/09/04 08:35:16;;;;;;;5.60;2.47;;;20.90;79.80;;;;;;5043313;28;20049;-69
2022/09/04 08:37:57;;;;;;;6.53;2.88;;;21.10;79.70;;;;;;5037174;28;20135;-70
2022/09/04 08:40:24;;;;;;;7.63;2.92;;;21.10;79.20;;;;;;5046446;28;20036;-70
2022/09/04 08:43:16;;;;;;;4.93;2.50;;;21.30;79.20;;;;;;5036163;28;20053;-70
2022/09/04 08:46:23;;;;;;;6.10;2.50;;;21.50;78.60;;;;;;5040624;28;20050;-70
2022/09/04 08:49:10;;;;;;;5.13;2.92;;;21.70;77.40;;;;;;5046790;28;20085;-70
2022/09/04 08:52:13;;;;;;;6.90;2.65;;;21.80;77.70;;;;;;5053607;28;20041;-70
2022/09/04 08:55:06;;;;;;;5.93;2.63;;;21.90;77.40;;;;;;5052139;28;20135;-69
2022/09/04 08:57:50;;;;;;;7.30;2.28;;;22.00;77.10;;;;;;5045985;28;21926;-68
2022/09/04 09:00:21;;;;;;;4.57;2.58;;;22.20;77.30;;;;;;5050795;28;20092;-69
2022/09/04 09:02:53;;;;;;;5.82;2.35;;;22.50;77.60;;;;;;5046188;28;20053;-69
2022/09/04 09:05:28;;;;;;;4.28;2.63;;;22.70;77.20;;;;;;5045958;28;20060;-69
2022/09/04 09:08:44;;;;;;;6.80;2.28;;;22.90;76.20;;;;;;5052041;28;20114;-69
2022/09/04 09:11:51;;;;;;;4.70;2.20;;;22.90;75.60;;;;;;5039678;28;20049;-69
2022/09/04 09:14:45;;;;;;;6.35;2.42;;;23.00;75.10;;;;;;5048390;28;20059;-69
2022/09/04 09:17:33;;;;;;;5.53;2.60;;;23.10;75.60;;;;;;5044527;28;20567;-70
2022/09/04 09:20:24;;;;;;;4.97;2.40;;;23.30;75.00;;;;;;5050392;28;20052;-70
2022/09/04 09:23:15;;;;;;;4.80;2.28;;;23.40;74.60;;;;;;5049726;28;20056;-69
2022/09/04 09:25:48;;;;;;;6.53;2.22;;;23.50;74.20;;;;;;5049121;28;20058;-69
2022/09/04 09:28:19;;;;;;;7.18;2.42;;;23.50;74.20;;;;;;5052526;28;20183;-68
2022/09/04 09:31:14;;;;;;;3.67;2.20;;;23.60;73.80;;;;;;5043109;28;20041;-69
2022/09/04 09:33:43;;;;;;;18.17;2.20;;;23.60;74.10;;;;;;5051369;28;20059;-69
2022/09/04 09:36:43;;;;;;;6.07;2.63;;;23.80;73.80;;;;;;5051390;28;20080;-70
2022/09/04 09:39:36;;;;;;;5.18;2.35;;;24.00;73.80;;;;;;5046771;28;20128;-69
2022/09/04 09:42:05;;;;;;;5.82;2.42;;;24.20;73.20;;;;;;5052471;28;20500;-69
2022/09/04 09:45:07;;;;;;;3.65;2.10;;;24.50;72.50;;;;;;5046424;28;20033;-69
2022/09/04 09:48:07;;;;;;;6.68;2.45;;;24.60;71.00;;;;;;5051861;28;20041;-68
2022/09/04 09:51:05;;;;;;;5.25;2.17;;;24.60;71.70;;;;;;5043236;28;20044;-69
2022/09/04 09:53:37;;;;;;;3.42;1.92;;;24.50;70.70;;;;;;5050585;28;20492;-70
2022/09/04 09:56:30;;;;;;;7.18;2.50;;;24.40;70.90;;;;;;5047559;28;20053;-69
2022/09/04 09:59:14;;;;;;;4.75;2.00;;;24.60;71.30;;;;;;5050680;28;20041;-68
2022/09/04 10:02:04;;;;;;;3.80;1.80;;;24.90;71.30;;;;;;5046713;28;20151;-68
2022/09/04 10:04:48;;;;;;;7.20;2.85;;;25.20;70.90;;;;;;5046212;28;20190;-68
2022/09/04 10:07:49;;;;;;;5.70;2.10;;;25.40;70.00;;;;;;5047700;28;20056;-68
2022/09/04 10:10:41;;;;;;;5.38;1.92;;;25.40;68.10;;;;;;5045324;28;20069;-69
2022/09/04 10:13:34;;;;;;;8.50;2.40;;;25.50;69.50;;;;;;5040752;28;20444;-68
2022/09/04 10:16:28;;;;;;;4.95;1.90;;;25.50;68.90;;;;;;5047112;28;20121;-69
2022/09/04 10:19:16;;;;;;;4.85;2.00;;;25.70;68.70;;;;;;5042544;28;20056;-69
2022/09/04 10:21:50;;;;;;;11.18;2.55;;;26.10;69.10;;;;;;5038461;28;20171;-69
2022/09/04 10:25:01;;;;;;;7.35;2.28;;;26.40;67.70;;;;;;5042539;28;20053;-69
2022/09/04 10:27:52;;;;;;;6.30;2.00;;;26.70;66.50;;;;;;5041870;28;20045;-69
2022/09/04 10:30:22;;;;;;;5.68;1.90;;;26.80;66.50;;;;;;5044938;28;20045;-69
2022/09/04 10:32:57;;;;;;;5.43;2.08;;;27.00;65.60;;;;;;5043926;28;20045;-69
2022/09/04 10:35:41;;;;;;;4.68;1.80;;;27.10;65.10;;;;;;5027944;28;20037;-69
2022/09/04 10:38:31;;;;;;;3.33;1.83;;;27.20;65.50;;;;;;5041892;28;20064;-68
2022/09/04 10:41:23;;;;;;;5.10;2.00;;;27.50;64.90;;;;;;5046232;28;20045;-69
2022/09/04 10:44:31;;;;;;;2.95;1.73;;;27.40;63.30;;;;;;5029116;28;20041;-70
2022/09/04 10:47:08;;;;;;;3.42;1.88;;;27.30;63.80;;;;;;5044870;28;20055;-69
2022/09/04 10:49:37;;;;;;;;;;;27.20;63.90;;;;;;5047640;28;20049;-69
2022/09/04 10:52:11;;;;;;;;;;;27.30;64.90;;;;;;5038691;28;19975;-68
2022/09/04 10:55:14;;;;;;;3.38;2.00;;;27.40;64.00;;;;;;5045135;28;20019;-69
2022/09/04 10:58:17;;;;;;;6.30;1.98;;;27.50;62.90;;;;;;5045020;28;20076;-70
2022/09/04 11:01:09;;;;;;;4.55;1.90;;;27.50;62.60;;;;;;5044897;28;20092;-70
2022/09/04 11:03:56;;;;;;;6.82;1.75;;;27.20;62.70;;;;;;5045364;28;20079;-67
2022/09/04 11:06:37;;;;;;;5.85;2.05;;;27.20;63.20;;;;;;5038837;28;20033;-69
2022/09/04 11:09:32;;;;;;;3.67;2.03;;;27.10;63.20;;;;;;5043553;28;20144;-69
2022/09/04 11:12:14;;;;;;;3.03;2.03;;;27.10;63.50;;;;;;5049273;28;20059;-69
2022/09/04 11:15:05;;;;;;;6.13;1.75;;;27.10;63.40;;;;;;5046238;28;20455;-70
2022/09/04 11:17:51;;;;;;;7.18;2.13;;;27.30;63.40;;;;;;5040791;28;20485;-68
2022/09/04 11:20:29;;;;;;;4.97;2.00;;;27.40;63.50;;;;;;5045554;28;20131;-69
2022/09/04 11:23:08;;;;;;;;;;;27.70;63.60;;;;;;5046686;28;20800;-70
2022/09/04 11:26:05;;;;;;;6.88;2.22;;;28.10;62.50;;;;;;5037861;28;19932;-70
2022/09/04 11:28:47;;;;;;;4.20;2.10;;;28.50;62.10;;;;;;5020159;28;20051;-69
2022/09/04 11:31:19;;;;;;;9.57;2.08;;;28.60;61.10;;;;;;5040139;28;20076;-70
2022/09/04 11:34:04;;;;;;;4.03;1.67;;;28.70;61.70;;;;;;5043365;28;20052;-69
2022/09/04 11:36:54;;;;;;;7.32;1.88;;;29.00;61.30;;;;;;5044485;28;20139;-69
2022/09/04 11:39:42;;;;;;;8.88;1.92;;;29.10;61.20;;;;;;5041484;28;20055;-69
2022/09/04 11:42:38;;;;;;;5.03;2.13;;;29.10;60.30;;;;;;5042675;28;20672;-69
2022/09/04 11:45:37;;;;;;;7.78;2.28;;;28.80;59.70;;;;;;5044702;28;20057;-69
2022/09/04 11:48:06;;;;;;;4.35;1.70;;;28.40;60.60;;;;;;5045896;28;20048;-70
2022/09/04 11:50:59;;;;;;;8.68;3.05;;;28.40;61.50;;;;;;5045626;28;20518;-70
2022/09/04 11:53:30;;;;;;;3.63;1.90;;;28.40;61.60;;;;;;5048820;28;20044;-70
2022/09/04 11:56:13;;;;;;;9.50;2.00;;;28.40;61.60;;;;;;5047648;28;20562;-71
2022/09/04 11:58:57;;;;;;;5.53;2.00;;;28.40;61.30;;;;;;5045071;28;20045;-70
2022/09/04 12:01:28;;;;;;;5.03;1.70;;;28.30;60.80;;;;;;5043225;28;20119;-70
2022/09/04 12:04:13;;;;;;;5.82;1.88;;;28.30;61.10;;;;;;5045925;28;20502;-68
2022/09/04 12:07:12;;;;;;;5.25;2.05;;;28.50;61.20;;;;;;5045901;28;20037;-69
2022/09/04 12:09:50;;;;;;;4.10;1.63;;;28.50;61.50;;;;;;5034434;28;20052;-71
2022/09/04 12:12:50;;;;;;;4.60;2.10;;;28.80;61.10;;;;;;5042651;28;20033;-70
2022/09/04 12:15:35;;;;;;;4.95;2.00;;;29.10;62.20;;;;;;5041962;28;20072;-70
2022/09/04 12:18:34;;;;;;;5.57;1.98;;;29.30;60.70;;;;;;5042832;28;20140;-71
2022/09/04 12:21:06;;;;;;;;;;;29.40;60.50;;;;;;5048296;28;20132;-70
2022/09/04 12:23:55;;;;;;;5.78;2.63;;;29.50;60.50;;;;;;5048102;28;19927;-69
2022/09/04 12:26:27;;;;;;;4.88;2.53;;;29.50;60.00;;;;;;5046234;28;20546;-69
2022/09/04 12:28:58;;;;;;;4.30;2.00;;;29.50;60.00;;;;;;5048945;28;20504;-68
2022/09/04 12:32:01;;;;;;;5.13;2.17;;;29.60;59.70;;;;;;5047599;28;20072;-69
2022/09/04 12:34:59;;;;;;;3.50;1.73;;;29.60;59.70;;;;;;5045300;28;20041;-69
2022/09/04 12:37:50;;;;;;;2.38;1.60;;;29.60;59.60;;;;;;5017714;28;20061;-69
2022/09/04 12:40:18;;;;;;;5.68;1.85;;;29.80;59.10;;;;;;5047373;28;20083;-68
2022/09/04 12:42:56;;;;;;;4.07;1.95;;;29.70;59.30;;;;;;5044119;28;20037;-68
2022/09/04 12:45:30;;;;;;;6.57;2.10;;;29.50;59.10;;;;;;5045153;28;20131;-69
2022/09/04 12:47:58;;;;;;;6.82;2.13;;;29.50;59.50;;;;;;5046343;28;20234;-68
2022/09/04 12:50:56;;;;;;;3.78;1.65;;;29.50;59.40;;;;;;5045437;28;20132;-69
2022/09/04 12:53:43;;;;;;;4.63;1.60;;;29.50;59.50;;;;;;5049784;28;20041;-68
2022/09/04 12:56:21;;;;;;;4.00;1.70;;;29.70;59.10;;;;;;5049572;28;20051;-68
2022/09/04 12:59:11;;;;;;;5.30;1.80;;;29.80;58.90;;;;;;5047905;28;20045;-68
2022/09/04 13:01:55;;;;;;;7.18;1.90;;;30.00;58.90;;;;;;5045946;28;20419;-69
2022/09/04 13:04:37;;;;;;;4.47;1.63;;;30.00;58.60;;;;;;5048243;28;20152;-71
2022/09/04 13:07:24;;;;;;;7.03;1.85;;;29.70;58.20;;;;;;5047547;28;20098;-68
2022/09/04 13:10:23;;;;;;;3.75;1.63;;;29.50;59.40;;;;;;5040659;28;20493;-69
2022/09/04 13:13:34;;;;;;;5.28;1.90;;;29.30;59.00;;;;;;5049143;28;20107;-69
2022/09/04 13:16:33;;;;;;;4.38;1.77;;;29.00;58.90;;;;;;5043418;28;20046;-69
2022/09/04 13:19:18;;;;;;;3.67;1.75;;;28.90;59.70;;;;;;5043466;28;20042;-67
2022/09/04 13:22:19;;;;;;;4.35;1.70;;;29.00;59.80;;;;;;5050414;28;20126;-69
2022/09/04 13:25:07;;;;;;;3.47;1.70;;;29.10;59.50;;;;;;5042496;28;20052;-69
2022/09/04 13:28:01;;;;;;;5.05;1.88;;;29.00;59.50;;;;;;5061167;28;20064;-69
2022/09/04 13:30:29;;;;;;;3.28;1.77;;;29.00;59.70;;;;;;5046265;28;20076;-67
2022/09/04 13:33:04;;;;;;;5.00;1.60;;;29.30;59.60;;;;;;5050015;28;20037;-69
2022/09/04 13:36:09;;;;;;;4.07;1.50;;;29.50;59.60;;;;;;5047208;28;20356;-70
2022/09/04 13:38:54;;;;;;;4.43;1.92;;;29.80;58.90;;;;;;5031478;28;20072;-68
2022/09/04 13:41:41;;;;;;;8.48;1.85;;;30.10;58.70;;;;;;5050843;28;20049;-69
2022/09/04 13:44:51;;;;;;;3.70;1.60;;;30.30;57.90;;;;;;5048584;28;20041;-70
2022/09/04 13:47:21;;;;;;;2.28;1.50;;;30.30;57.40;;;;;;5049462;28;20076;-69
2022/09/04 13:50:07;;;;;;;2.38;1.48;;;30.20;57.90;;;;;;5043647;28;20060;-69
2022/09/04 13:52:35;;;;;;;6.07;1.80;;;29.70;58.00;;;;;;5042413;28;20053;-69
2022/09/04 13:55:26;;;;;;;5.03;1.70;;;29.20;58.80;;;;;;5050654;28;20467;-68
2022/09/04 13:58:13;;;;;;;2.67;1.70;;;28.90;59.00;;;;;;5045035;28;20041;-70
2022/09/04 14:00:55;;;;;;;5.75;1.70;;;28.50;59.00;;;;;;5047076;28;20037;-70
2022/09/04 14:03:47;;;;;;;11.40;1.90;;;28.20;60.10;;;;;;5050531;28;20459;-68
2022/09/04 14:06:17;;;;;;;4.82;1.70;;;27.90;60.40;;;;;;5039401;28;20060;-69
2022/09/04 14:08:46;;;;;;;5.60;1.52;;;27.70;60.80;;;;;;5045674;28;20049;-69
2022/09/04 14:11:33;;;;;;;4.18;1.60;;;27.50;61.30;;;;;;5043979;28;20124;-68
2022/09/04 14:14:10;;;;;;;2.83;1.70;;;27.40;61.80;;;;;;5047795;28;20041;-68
2022/09/04 14:16:40;;;;;;;5.20;1.55;;;27.30;61.90;;;;;;5042913;28;20060;-69
2022/09/04 14:19:41;;;;;;;4.13;1.77;;;27.30;62.10;;;;;;5049010;28;20489;-68
2022/09/04 14:22:29;;;;;;;4.57;1.60;;;27.20;62.20;;;;;;5041847;28;20038;-68
2022/09/04 14:25:22;;;;;;;2.75;1.70;;;27.20;62.80;;;;;;5046290;28;20049;-70
2022/09/04 14:27:48;;;;;;;4.85;2.00;;;27.10;62.60;;;;;;5045081;28;20131;-69